Impacts TAF Board
For situational awareness. Not to be used for flight planning purposes.
IDs:

KMDW - Chicago/Midway Intl, IL, US

Issued at 1120 UTC 23 Mar 2019
Updated at 1256 UTC 23 Mar 2019
Potential Impact None Slight Moderate High
Time<<24/01Z 24/02Z 24/03Z 24/04Z 24/05Z 24/06Z 24/07Z 24/08Z 24/09Z 24/10Z 24/11Z 24/12Z 24/13Z>>
Type PRVL PRVL PRVL PRVL PRVL PRVL PRVL PRVL PRVL PRVL PRVL PRVL PRVL
VIS >6 >6 >6 >6 >6 >6 >6 >6 >6 >6 >6 >6 >6
CIG 200 200 200 200 200 200 200 200 200 50 50 50 20
Cover BKN BKN BKN BKN BKN BKN BKN BKN BKN OVC OVC OVC OVC
FltCat VFR VFR VFR VFR VFR VFR VFR VFR VFR VFR VFR VFR MVFR
WX -- -- -- -- -- -- -- -- -- -RA -RA -RA -RA
WDir 180 180 180 180 180 180 180 180 180 180 180 180 170
WSpd 5 5 5 5 5 5 5 5 5 5 5 5 5
WGst -- -- -- -- -- -- -- -- -- -- -- -- --
Raw TAF
KMDW 231120Z 2312/2418 21003KT P6SM SKC
  FM231700 19008KT P6SM SCT250
  FM240000 18005KT P6SM SCT100 BKN200
  FM241000 18005KT P6SM -RA SCT030 OVC050
  FM241300 17005KT P6SM -RA SCT014 OVC020


METAR Board
Radar Display
Forecast Discussion
For situational awareness. Not to be used for flight planning purposes.